Terminal Aerodrome Forecast
Issued by NWS

Home | Current Version | Previous Version | Graphics & Text | Print | Product List | Glossary On
Versions: 1 2 3 4 5 6 7 8 9 10 11 12 13 14 15 16 17 18 19 20
000
FTUS43 KMPX 211918 CCA
TAFAXN
TAF COR
KAXN 211918Z 2119/2218 10010KT 4SM -RA BR OVC007
     FM212100 12007KT 6SM BR OVC007
     FM221200 14004KT 4SM BR OVC004
     FM221500 16006KT P6SM OVC007
     FM221700 16006KT P6SM BKN015=

USA.gov is the U.S. government's official web portal to all federal, state and local government web resources and services.